createdAt,value
2022-10-05T00:01:41.028Z,2.53
2022-10-05T00:04:12.147Z,2.80
2022-10-05T00:09:20.961Z,2.65
2022-10-05T00:11:48.860Z,2.35
2022-10-05T00:14:18.318Z,2.50
2022-10-05T00:16:46.020Z,2.30
2022-10-05T00:19:19.085Z,2.03
2022-10-05T00:21:46.450Z,2.30
2022-10-05T00:24:15.170Z,2.80
2022-10-05T00:26:42.411Z,1.90
2022-10-05T00:29:16.474Z,2.20
2022-10-05T00:31:43.822Z,2.03
2022-10-05T00:34:11.080Z,1.90
2022-10-05T00:36:39.259Z,2.00
2022-10-05T00:39:06.621Z,2.00
2022-10-05T00:41:54.100Z,2.15
2022-10-05T00:44:40.127Z,2.22
2022-10-05T00:47:16.399Z,2.20
2022-10-05T00:50:06.941Z,1.90
2022-10-05T00:53:06.449Z,1.65
2022-10-05T00:55:45.456Z,1.80
2022-10-05T00:58:12.684Z,1.92
2022-10-05T01:00:46.999Z,1.83
2022-10-05T01:03:20.845Z,2.55
2022-10-05T01:05:48.069Z,2.10
2022-10-05T01:08:34.304Z,2.88
2022-10-05T01:11:30.819Z,2.28
2022-10-05T01:14:00.950Z,2.30
2022-10-05T01:16:36.632Z,2.25
2022-10-05T01:19:09.992Z,2.42
2022-10-05T01:21:50.818Z,2.75
2022-10-05T01:24:47.610Z,2.33
2022-10-05T01:27:37.617Z,2.45
2022-10-05T01:30:16.055Z,2.35
2022-10-05T01:33:15.733Z,1.85
2022-10-05T01:35:42.941Z,1.90
2022-10-05T01:38:13.052Z,2.30
2022-10-05T01:40:47.761Z,1.85
2022-10-05T01:43:21.024Z,2.28
2022-10-05T01:46:07.382Z,1.70
2022-10-05T01:48:37.763Z,1.83
2022-10-05T01:51:05.165Z,1.90
2022-10-05T01:53:44.401Z,1.80
2022-10-05T01:56:25.738Z,2.08
2022-10-05T01:59:16.817Z,2.05
2022-10-05T02:01:49.824Z,2.03
2022-10-05T02:07:24.879Z,2.30
2022-10-05T02:09:59.434Z,2.20
2022-10-05T02:12:30.135Z,1.98
2022-10-05T02:14:59.484Z,2.10
2022-10-05T02:17:29.643Z,1.70
2022-10-05T02:20:00.935Z,2.30
2022-10-05T02:22:39.280Z,2.33
2022-10-05T02:25:09.837Z,2.10
2022-10-05T02:27:45.338Z,2.15
2022-10-05T02:30:16.371Z,2.20
2022-10-05T02:32:50.377Z,2.00
2022-10-05T02:35:18.113Z,1.95
2022-10-05T02:38:01.601Z,1.73
2022-10-05T02:40:34.943Z,2.35
2022-10-05T02:43:02.248Z,2.30
2022-10-05T02:45:41.934Z,2.28
2022-10-05T02:48:18.297Z,2.30
2022-10-05T02:50:59.772Z,2.05
2022-10-05T02:53:50.370Z,2.08
2022-10-05T02:56:37.530Z,2.55
2022-10-05T02:59:23.178Z,2.15
2022-10-05T03:01:52.615Z,2.55
2022-10-05T03:04:19.878Z,3.03
2022-10-05T03:06:52.975Z,3.00
2022-10-05T03:09:21.592Z,3.10
2022-10-05T03:11:51.817Z,3.42
2022-10-05T03:14:32.409Z,2.83
2022-10-05T03:17:19.457Z,3.50
2022-10-05T03:19:46.698Z,3.65
2022-10-05T03:22:16.978Z,3.47
2022-10-05T03:25:02.602Z,3.13
2022-10-05T03:27:53.238Z,3.88
2022-10-05T03:30:26.714Z,4.10
2022-10-05T03:33:02.439Z,3.65
2022-10-05T03:35:36.234Z,3.13
2022-10-05T03:38:13.872Z,3.30
2022-10-05T03:41:01.398Z,2.67
2022-10-05T03:43:40.826Z,3.03
2022-10-05T03:46:14.119Z,3.40
2022-10-05T03:49:04.673Z,2.97
2022-10-05T03:51:43.779Z,2.85
2022-10-05T03:54:16.201Z,3.10
2022-10-05T03:56:50.161Z,3.28
2022-10-05T03:59:19.413Z,2.90
2022-10-05T04:01:50.892Z,2.90
2022-10-05T04:04:41.556Z,2.80
2022-10-05T04:07:29.053Z,2.80
2022-10-05T04:09:56.891Z,2.90
2022-10-05T04:12:31.213Z,3.50
2022-10-05T04:15:01.368Z,3.33
2022-10-05T04:17:33.522Z,3.17
2022-10-05T04:20:06.499Z,3.72
2022-10-05T04:22:40.114Z,3.20
2022-10-05T04:25:14.682Z,3.58
2022-10-05T04:27:48.117Z,3.67
2022-10-05T04:30:15.403Z,3.13
2022-10-05T04:32:43.916Z,3.47
2022-10-05T04:35:17.472Z,3.30
2022-10-05T04:38:00.191Z,3.45
2022-10-05T04:40:39.965Z,3.88
2022-10-05T04:43:16.361Z,4.03
2022-10-05T04:45:43.598Z,4.63
2022-10-05T04:48:17.026Z,4.38
2022-10-05T04:51:03.132Z,4.40
2022-10-05T04:53:34.470Z,5.05
2022-10-05T04:56:04.656Z,4.60
2022-10-05T04:58:42.185Z,5.15
2022-10-05T05:01:12.945Z,5.03
2022-10-05T05:03:59.188Z,5.55
2022-10-05T05:06:35.212Z,5.15
2022-10-05T05:09:14.465Z,6.30
2022-10-05T05:11:44.828Z,6.90
2022-10-05T05:14:20.399Z,6.32
2022-10-05T05:16:53.709Z,6.72
2022-10-05T05:19:35.695Z,7.20
2022-10-05T05:22:15.077Z,7.95
2022-10-05T05:25:05.495Z,8.02
2022-10-05T05:27:47.166Z,8.53
2022-10-05T05:30:17.514Z,8.90
2022-10-05T05:32:55.238Z,9.65
2022-10-05T05:35:37.503Z,8.93
2022-10-05T05:38:23.625Z,9.70
2022-10-05T05:41:03.442Z,9.02
2022-10-05T05:43:43.627Z,9.02
2022-10-05T05:46:17.872Z,8.82
2022-10-05T05:48:46.852Z,10.65
2022-10-05T05:51:24.538Z,10.90
2022-10-05T05:53:54.723Z,10.90
2022-10-05T05:56:26.901Z,9.85
2022-10-05T05:59:00.453Z,10.50
2022-10-05T06:01:33.631Z,10.90
2022-10-05T06:04:10.325Z,9.77
2022-10-05T06:06:43.150Z,10.77
2022-10-05T06:09:29.353Z,10.48
2022-10-05T06:11:59.219Z,11.57
2022-10-05T06:14:33.302Z,11.15
2022-10-05T06:17:20.460Z,10.48
2022-10-05T06:19:48.610Z,11.43
2022-10-05T06:22:28.896Z,10.88
2022-10-05T06:25:15.161Z,10.60
2022-10-05T06:28:01.196Z,12.18
2022-10-05T06:30:46.149Z,11.02
2022-10-05T06:33:42.481Z,12.30
2022-10-05T06:36:09.713Z,12.88
2022-10-05T06:38:55.381Z,11.88
2022-10-05T06:41:37.610Z,13.05
2022-10-05T06:44:04.849Z,11.48
2022-10-05T06:46:37.238Z,12.40
2022-10-05T06:49:16.737Z,12.38
2022-10-05T06:52:04.747Z,12.40
2022-10-05T06:54:31.986Z,12.15
2022-10-05T06:57:08.321Z,12.25
2022-10-05T06:59:44.041Z,12.18
2022-10-05T07:02:34.419Z,11.45
2022-10-05T07:05:16.788Z,12.13
2022-10-05T07:07:44.000Z,12.80
2022-10-05T07:10:40.684Z,12.68
2022-10-05T07:13:15.976Z,12.43
2022-10-05T07:15:52.619Z,13.05
2022-10-05T07:18:55.261Z,11.80
2022-10-05T07:21:41.310Z,11.60
2022-10-05T07:24:11.557Z,11.98
2022-10-05T07:26:52.125Z,13.37
2022-10-05T07:29:24.503Z,12.48
2022-10-05T07:31:54.649Z,12.80
2022-10-05T07:34:21.867Z,13.05
2022-10-05T07:37:31.817Z,13.32
2022-10-05T07:40:11.105Z,13.13
2022-10-05T07:42:52.033Z,13.27
2022-10-05T07:47:56.778Z,13.38
2022-10-05T07:50:30.066Z,12.38
2022-10-05T07:52:59.160Z,12.73
2022-10-05T07:55:27.402Z,11.43
2022-10-05T07:58:13.502Z,12.13
2022-10-05T08:00:43.731Z,12.32
2022-10-05T08:03:14.929Z,12.07
2022-10-05T08:05:43.196Z,11.48
2022-10-05T08:08:26.495Z,11.98
2022-10-05T08:11:12.316Z,12.25
2022-10-05T08:13:59.847Z,12.50
2022-10-05T08:16:28.776Z,12.43
2022-10-05T08:19:15.352Z,12.32
2022-10-05T08:21:45.627Z,12.57
2022-10-05T08:24:30.437Z,12.15
2022-10-05T08:27:05.370Z,11.63
2022-10-05T08:29:35.491Z,11.10
2022-10-05T08:32:04.832Z,11.95
2022-10-05T08:34:32.080Z,12.02
2022-10-05T08:37:02.138Z,9.65
2022-10-05T08:39:35.807Z,10.82
2022-10-05T08:42:12.098Z,10.93
2022-10-05T08:44:39.308Z,10.60
2022-10-05T08:47:13.675Z,10.50
2022-10-05T08:49:59.584Z,10.52
2022-10-05T08:52:29.286Z,11.07
2022-10-05T08:54:59.595Z,11.30
2022-10-05T08:57:42.125Z,12.23
2022-10-05T09:00:12.152Z,11.18
2022-10-05T09:03:01.157Z,11.63
2022-10-05T09:05:37.561Z,11.82
2022-10-05T09:08:23.149Z,12.70
2022-10-05T09:10:50.481Z,11.27
2022-10-05T09:13:36.888Z,11.35
2022-10-05T09:16:10.270Z,11.70
2022-10-05T09:18:49.972Z,11.27
2022-10-05T09:21:37.481Z,11.25
2022-10-05T09:24:07.971Z,11.27
2022-10-05T09:26:35.431Z,11.32
2022-10-05T09:29:25.472Z,10.70
2022-10-05T09:31:58.635Z,10.63
2022-10-05T09:34:49.454Z,9.95
2022-10-05T09:37:26.522Z,9.50
2022-10-05T09:40:12.980Z,9.38
2022-10-05T09:42:40.210Z,9.35
2022-10-05T09:45:21.639Z,9.98
2022-10-05T09:47:52.020Z,9.95
2022-10-05T09:50:38.188Z,9.57
2022-10-05T09:53:11.211Z,9.13
2022-10-05T09:55:39.385Z,9.60
2022-10-05T09:58:20.421Z,9.55
2022-10-05T10:01:03.854Z,9.57
2022-10-05T10:03:39.293Z,9.73
2022-10-05T10:06:15.848Z,11.02
2022-10-05T10:09:03.376Z,10.63
2022-10-05T10:11:51.808Z,11.05
2022-10-05T10:14:39.278Z,10.00
2022-10-05T10:17:13.303Z,9.77
2022-10-05T10:20:02.294Z,9.15
2022-10-05T10:22:50.205Z,9.50
2022-10-05T10:25:35.947Z,8.98
2022-10-05T10:28:03.212Z,8.55
2022-10-05T10:30:49.052Z,7.93
2022-10-05T10:33:24.123Z,9.00
2022-10-05T10:36:09.909Z,8.95
2022-10-05T10:38:42.268Z,9.30
2022-10-05T10:41:15.407Z,8.50
2022-10-05T10:43:58.020Z,7.90
2022-10-05T10:46:34.131Z,8.38
2022-10-05T10:49:19.491Z,7.20
2022-10-05T10:51:49.513Z,7.47
2022-10-05T10:54:25.334Z,7.88
2022-10-05T10:57:03.186Z,7.57
2022-10-05T10:59:45.683Z,6.78
2022-10-05T11:02:27.163Z,8.25
2022-10-05T11:05:09.736Z,8.73
2022-10-05T11:07:37.069Z,7.80
2022-10-05T11:10:15.063Z,7.78
2022-10-05T11:13:01.030Z,7.65
2022-10-05T11:15:43.486Z,7.38
2022-10-05T11:18:20.484Z,7.85
2022-10-05T11:20:50.564Z,8.00
2022-10-05T11:23:17.890Z,8.00
2022-10-05T11:25:54.249Z,7.75
2022-10-05T11:28:24.485Z,7.57
2022-10-05T11:30:54.834Z,7.73
2022-10-05T11:33:34.484Z,8.32
2022-10-05T11:36:14.657Z,7.47
2022-10-05T11:38:57.237Z,7.28
2022-10-05T11:41:43.215Z,7.25
2022-10-05T11:44:19.338Z,7.70
2022-10-05T11:46:52.781Z,7.50
2022-10-05T11:49:20.045Z,6.47
2022-10-05T11:52:13.562Z,6.80
2022-10-05T11:55:09.329Z,6.70
2022-10-05T11:57:37.794Z,6.80
2022-10-05T12:00:19.294Z,6.85
2022-10-05T12:02:58.977Z,6.78
2022-10-05T12:05:32.568Z,7.25
2022-10-05T12:08:21.766Z,6.85
2022-10-05T12:10:59.570Z,6.70
2022-10-05T12:13:45.530Z,6.88
2022-10-05T12:16:25.962Z,6.80
2022-10-05T12:18:56.027Z,6.87
2022-10-05T12:21:46.386Z,7.05
2022-10-05T12:24:32.420Z,7.30
2022-10-05T12:27:02.098Z,6.95
2022-10-05T12:29:41.507Z,7.50
2022-10-05T12:32:21.253Z,7.72
2022-10-05T12:35:07.094Z,7.70
2022-10-05T12:37:53.093Z,7.45
2022-10-05T12:40:38.903Z,6.88
2022-10-05T12:43:27.000Z,7.45
2022-10-05T12:46:06.133Z,7.53
2022-10-05T12:48:45.416Z,7.88
2022-10-05T12:51:31.884Z,8.13
2022-10-05T12:54:19.351Z,7.47
2022-10-05T12:56:52.572Z,8.35
2022-10-05T12:59:41.220Z,7.22
2022-10-05T13:02:09.318Z,9.18
2022-10-05T13:04:43.989Z,7.75
2022-10-05T13:07:29.997Z,7.40
2022-10-05T13:09:59.989Z,9.07
2022-10-05T13:12:49.389Z,7.85
2022-10-05T13:15:39.682Z,8.70
2022-10-05T13:18:10.088Z,8.85
2022-10-05T13:21:07.115Z,9.13
2022-10-05T13:23:37.224Z,8.98
2022-10-05T13:26:25.248Z,9.25
2022-10-05T13:29:03.846Z,9.60
2022-10-05T13:31:39.239Z,9.95
2022-10-05T13:34:18.861Z,9.77
2022-10-05T13:37:01.227Z,10.35
2022-10-05T13:39:37.639Z,9.52
2022-10-05T13:42:13.740Z,9.15
2022-10-05T13:44:50.498Z,10.07
2022-10-05T13:47:22.779Z,9.68
2022-10-05T13:49:56.219Z,10.20
2022-10-05T13:52:23.428Z,11.02
2022-10-05T13:54:53.712Z,10.88
2022-10-05T13:57:21.299Z,10.57
2022-10-05T13:59:53.547Z,10.40
2022-10-05T14:02:28.008Z,10.60
2022-10-05T14:05:02.949Z,10.90
2022-10-05T14:07:35.039Z,10.38
2022-10-05T14:10:04.599Z,10.27
2022-10-05T14:12:38.193Z,11.00
2022-10-05T14:15:19.770Z,10.80
2022-10-05T14:17:47.182Z,10.23
2022-10-05T14:20:18.444Z,10.60
2022-10-05T14:25:18.112Z,10.35
2022-10-05T14:28:24.210Z,10.05
2022-10-05T14:31:18.145Z,9.05
2022-10-05T14:33:45.723Z,10.25
2022-10-05T14:36:21.263Z,10.77
2022-10-05T14:38:58.071Z,10.73
2022-10-05T14:41:27.519Z,10.20
2022-10-05T14:43:57.694Z,10.65
2022-10-05T14:46:29.100Z,9.93
2022-10-05T14:49:15.915Z,10.18
2022-10-05T14:51:43.414Z,10.45
2022-10-05T14:54:25.282Z,11.05
2022-10-05T14:57:02.544Z,10.20
2022-10-05T14:59:40.262Z,10.70
2022-10-05T15:02:26.896Z,10.23
2022-10-05T15:04:54.151Z,10.52
2022-10-05T15:07:23.760Z,10.18
2022-10-05T15:09:56.993Z,11.65
2022-10-05T15:12:30.169Z,11.50
2022-10-05T15:15:02.403Z,10.20
2022-10-05T15:17:40.227Z,9.88
2022-10-05T15:20:17.289Z,9.93
2022-10-05T15:23:05.021Z,10.35
2022-10-05T15:25:47.961Z,9.88
2022-10-05T15:28:18.006Z,9.90
2022-10-05T15:30:52.778Z,10.60
2022-10-05T15:33:24.817Z,9.68
2022-10-05T15:36:00.721Z,10.52
2022-10-05T15:38:50.047Z,10.82
2022-10-05T15:41:24.306Z,11.02
2022-10-05T15:43:55.192Z,9.73
2022-10-05T15:46:34.370Z,11.15
2022-10-05T15:49:40.247Z,9.65
2022-10-05T15:52:25.913Z,9.75
2022-10-05T15:55:01.058Z,9.45
2022-10-05T15:57:31.251Z,10.23
2022-10-05T16:00:10.899Z,10.55
2022-10-05T16:02:38.265Z,10.10
2022-10-05T16:05:44.292Z,9.70
2022-10-05T16:08:50.292Z,9.85
2022-10-05T16:11:36.902Z,9.45
2022-10-05T16:14:13.148Z,10.05
2022-10-05T16:16:45.861Z,9.77
2022-10-05T16:19:21.957Z,9.40
2022-10-05T16:22:04.631Z,9.07
2022-10-05T16:24:38.080Z,10.18
2022-10-05T16:27:10.519Z,10.07
2022-10-05T16:29:47.686Z,9.73
2022-10-05T16:32:17.504Z,10.23
2022-10-05T16:34:51.093Z,10.13
2022-10-05T16:37:24.823Z,10.50
2022-10-05T16:39:54.791Z,9.95
2022-10-05T16:42:41.474Z,10.55
2022-10-05T16:45:20.605Z,9.77
2022-10-05T16:47:53.549Z,9.57
2022-10-05T16:50:56.149Z,10.48
2022-10-05T16:53:29.664Z,10.13
2022-10-05T16:56:01.900Z,8.68
2022-10-05T16:58:38.290Z,10.07
2022-10-05T17:01:05.570Z,10.15
2022-10-05T17:03:41.889Z,9.70
2022-10-05T17:06:21.533Z,10.00
2022-10-05T17:08:54.930Z,9.63
2022-10-05T17:11:36.655Z,9.43
2022-10-05T17:14:11.359Z,9.65
2022-10-05T17:16:57.689Z,10.10
2022-10-05T17:19:27.967Z,9.40
2022-10-05T17:22:00.673Z,10.23
2022-10-05T17:24:28.073Z,11.13
2022-10-05T17:27:15.991Z,10.05
2022-10-05T17:29:43.231Z,10.25
2022-10-05T17:32:12.147Z,11.55
2022-10-05T17:34:40.647Z,10.50
2022-10-05T17:37:18.400Z,10.45
2022-10-05T17:39:47.579Z,10.95
2022-10-05T17:42:26.820Z,11.80
2022-10-05T17:45:02.649Z,10.50
2022-10-05T17:47:48.412Z,10.55
2022-10-05T17:50:41.882Z,10.63
2022-10-05T17:53:41.131Z,11.00
2022-10-05T17:56:08.890Z,10.95
2022-10-05T17:58:36.127Z,11.88
2022-10-05T18:01:04.342Z,10.55
2022-10-05T18:03:51.505Z,11.45
2022-10-05T18:06:37.770Z,12.35
2022-10-05T18:09:17.481Z,11.57
2022-10-05T18:11:49.396Z,11.93
2022-10-05T18:14:19.525Z,11.82
2022-10-05T18:17:03.519Z,11.93
2022-10-05T18:19:32.504Z,12.15
2022-10-05T18:22:01.450Z,12.30
2022-10-05T18:24:34.385Z,11.48
2022-10-05T18:27:24.726Z,12.60
2022-10-05T18:30:02.824Z,12.35
2022-10-05T18:32:36.160Z,12.20
2022-10-05T18:35:11.422Z,12.20
2022-10-05T18:37:38.676Z,12.77
2022-10-05T18:40:21.412Z,13.15
2022-10-05T18:42:51.865Z,13.73
2022-10-05T18:45:32.014Z,12.07
2022-10-05T18:47:59.225Z,14.43
2022-10-05T18:50:47.652Z,13.95
2022-10-05T18:53:47.399Z,13.30
2022-10-05T18:56:23.541Z,12.65
2022-10-05T18:58:54.596Z,13.73
2022-10-05T19:01:36.691Z,13.10
2022-10-05T19:04:19.317Z,14.07
2022-10-05T19:06:52.906Z,15.00
2022-10-05T19:09:26.338Z,14.32
2022-10-05T19:11:56.631Z,14.35
2022-10-05T19:14:37.387Z,14.33
2022-10-05T19:17:04.598Z,14.15
2022-10-05T19:19:35.061Z,13.60
2022-10-05T19:22:02.291Z,13.95
2022-10-05T19:24:37.870Z,12.25
2022-10-05T19:27:08.032Z,13.65
2022-10-05T19:29:43.665Z,13.00
2022-10-05T19:32:17.528Z,13.77
2022-10-05T19:34:48.810Z,13.95
2022-10-05T19:37:22.077Z,13.68
2022-10-05T19:39:53.649Z,14.80
2022-10-05T19:42:20.860Z,13.90
2022-10-05T19:44:48.215Z,13.50
2022-10-05T19:47:36.381Z,13.73
2022-10-05T19:50:24.578Z,13.75
2022-10-05T19:52:52.754Z,14.93
2022-10-05T19:55:24.235Z,14.43
2022-10-05T19:57:56.227Z,14.85
2022-10-05T20:00:27.648Z,15.27
2022-10-05T20:03:13.511Z,14.70
2022-10-05T20:05:40.849Z,14.75
2022-10-05T20:08:09.278Z,14.95
2022-10-05T20:10:36.603Z,14.93
2022-10-05T20:13:05.273Z,15.20
2022-10-05T20:15:52.898Z,14.40
2022-10-05T20:18:55.438Z,16.50
2022-10-05T20:21:39.019Z,15.45
2022-10-05T20:24:06.975Z,16.15
2022-10-05T20:26:59.582Z,14.13
2022-10-05T20:29:26.936Z,15.05
2022-10-05T20:31:54.248Z,15.20
2022-10-05T20:34:24.854Z,16.13
2022-10-05T20:36:52.674Z,15.20
2022-10-05T20:39:21.393Z,15.07
2022-10-05T20:41:49.042Z,15.45
2022-10-05T20:44:16.315Z,13.93
2022-10-05T20:46:43.684Z,14.55
2022-10-05T20:49:11.145Z,14.10
2022-10-05T20:51:42.473Z,14.05
2022-10-05T20:54:09.723Z,13.43
2022-10-05T20:56:36.991Z,13.45
2022-10-05T20:59:04.313Z,12.85
2022-10-05T21:01:31.967Z,12.85
2022-10-05T21:03:59.447Z,13.02
2022-10-05T21:06:29.584Z,13.35
2022-10-05T21:08:56.888Z,12.73
2022-10-05T21:11:24.190Z,13.13
2022-10-05T21:13:53.923Z,12.15
2022-10-05T21:16:21.531Z,11.80
2022-10-05T21:18:49.483Z,12.13
2022-10-05T21:21:17.430Z,13.18
2022-10-05T21:23:45.541Z,11.98
2022-10-05T21:26:13.445Z,11.52
2022-10-05T21:28:41.301Z,11.27
2022-10-05T21:31:09.269Z,9.82
2022-10-05T21:33:36.899Z,11.32
2022-10-05T21:36:04.485Z,10.77
2022-10-05T21:38:31.790Z,11.00
2022-10-05T21:40:59.196Z,10.90
2022-10-05T21:43:26.841Z,11.40
2022-10-05T21:45:55.350Z,10.70
2022-10-05T21:48:23.092Z,10.63
2022-10-05T21:50:50.328Z,10.30
2022-10-05T21:53:19.022Z,10.23
2022-10-05T21:55:48.495Z,10.90
2022-10-05T21:58:16.496Z,10.95
2022-10-05T22:00:43.775Z,10.50
2022-10-05T22:03:11.161Z,10.48
2022-10-05T22:05:38.688Z,10.85
2022-10-05T22:08:06.111Z,10.50
2022-10-05T22:10:33.804Z,10.18
2022-10-05T22:13:04.864Z,10.38
2022-10-05T22:15:32.327Z,9.85
2022-10-05T22:18:02.952Z,9.95
2022-10-05T22:20:32.038Z,8.80
2022-10-05T22:22:59.364Z,9.23
2022-10-05T22:25:26.786Z,8.85
2022-10-05T22:27:54.177Z,9.43
2022-10-05T22:30:21.663Z,9.23
2022-10-05T22:32:51.164Z,9.82
2022-10-05T22:35:18.434Z,9.27
2022-10-05T22:37:45.970Z,9.25
2022-10-05T22:40:13.272Z,8.82
2022-10-05T22:42:40.683Z,8.55
2022-10-05T22:45:08.512Z,9.60
2022-10-05T22:47:35.963Z,8.98
2022-10-05T22:50:05.728Z,9.15
2022-10-05T22:52:32.989Z,10.00
2022-10-05T22:55:00.336Z,9.38
2022-10-05T22:57:27.572Z,9.45
2022-10-05T22:59:54.794Z,10.63
2022-10-05T23:02:22.084Z,10.20
2022-10-05T23:04:49.365Z,10.05
2022-10-05T23:07:16.585Z,10.10
2022-10-05T23:09:43.846Z,10.35
2022-10-05T23:12:11.748Z,10.40
2022-10-05T23:14:39.014Z,10.32
2022-10-05T23:17:07.949Z,10.27
2022-10-05T23:19:35.188Z,10.57
2022-10-05T23:22:03.100Z,10.73
2022-10-05T23:24:30.355Z,10.15
2022-10-05T23:26:57.671Z,10.82
2022-10-05T23:29:24.914Z,10.90
2022-10-05T23:31:52.175Z,10.80
2022-10-05T23:34:19.495Z,9.90
2022-10-05T23:36:46.725Z,10.65
2022-10-05T23:39:14.253Z,10.88
2022-10-05T23:41:43.968Z,11.05
2022-10-05T23:44:11.642Z,11.38
2022-10-05T23:46:38.923Z,11.20
2022-10-05T23:49:06.246Z,11.48
2022-10-05T23:51:33.570Z,11.68
2022-10-05T23:54:00.908Z,12.30
2022-10-05T23:56:28.137Z,11.00
2022-10-05T23:58:55.352Z,12.20
